PWSweather.com
Personal Weather Stations
Station Observations
ME1989
Sicily, Barcellona Pozzo Di GottoIT

SicilyBarcellona Pozzo Di GottoIT

Lat: 38.1487398, Lon: 15.2113962

Elevation: 131

Station Type: Peet Bros

Latest ConditionsUpdated 10:00:08 AM GMT+01:01 Thursday, Aug 28, 2014
Currently Today's Max Today's Min Today's Average
Temperature 83.8°F28.8°C 84.5°F29.2°C 71.6°F22.0°C 76.0°F24.4°C
Dew Point 55.5°F13.1°C 58.0°F14.4°C 54.8°F12.7°C 56.8°F13.8°C
Winds 1.4 mph NNW2.3 kmh NNW 6.4 mph NW10.3 kmh NW - 2.3 mph 3.7 kmh
Wind Gusts -- 8.1 mph13.0 kmh - -
Humidity 38% 60% 37% 52%
Pressure 29.91 in1012.9 mb 29.91 in1012.9 mb 29.88 in1011.9 mb -
Hour Temp Dew Point Humidity Winds Wind Gusts Pressure Precip Precip Rate Daily Precip Total
10:00 AM 83.8°F28.8°C 55.5°F13.1°C 38% 1.4 mph NNW2.3 kmh NNW -- 29.91 in1012.9 mb 0.00 in0.0 mm 0.00 in/hr0.0 mm/hr 0.00 in0.0 mm
09:50 AM 83.9°F28.8°C 54.8°F12.7°C 37% 6.4 mph NW10.3 kmh NW 8.1 mph13.0 kmh 29.91 in1012.9 mb 0.00 in0.0 mm 0.00 in/hr0.0 mm/hr 0.00 in0.0 mm
09:40 AM 84.4°F29.1°C 55.3°F12.9°C 37% 2.5 mph N4.0 kmh N 3.5 mph5.6 kmh 29.91 in1012.9 mb 0.00 in0.0 mm 0.00 in/hr0.0 mm/hr 0.00 in0.0 mm
09:30 AM 84.4°F29.1°C 56.1°F13.4°C 38% 3.3 mph NW5.3 kmh NW 5.2 mph8.4 kmh 29.91 in1012.9 mb 0.00 in0.0 mm 0.00 in/hr0.0 mm/hr 0.00 in0.0 mm
09:20 AM 84.5°F29.2°C 56.8°F13.8°C 39% 3.0 mph NNW4.8 kmh NNW 5.7 mph9.2 kmh 29.91 in1012.9 mb 0.00 in0.0 mm 0.00 in/hr0.0 mm/hr 0.00 in0.0 mm
09:10 AM 83.5°F28.6°C 55.3°F12.9°C 38% 2.2 mph W3.5 kmh W 2.5 mph4.0 kmh 29.91 in1012.9 mb 0.00 in0.0 mm 0.00 in/hr0.0 mm/hr 0.00 in0.0 mm
09:00 AM 83.1°F28.4°C 55.5°F13.1°C 39% 3.3 mph NW5.3 kmh NW 3.9 mph6.3 kmh 29.91 in1012.9 mb 0.00 in0.0 mm 0.00 in/hr0.0 mm/hr 0.00 in0.0 mm
08:50 AM 82.7°F28.2°C 56.6°F13.7°C 41% 1.3 mph NW2.1 kmh NW 4.2 mph6.8 kmh 29.91 in1012.9 mb 0.00 in0.0 mm 0.00 in/hr0.0 mm/hr 0.00 in0.0 mm
08:40 AM 82.4°F28.0°C 57.0°F13.9°C 42% 2.4 mph NW3.9 kmh NW 3.0 mph4.8 kmh 29.91 in1012.9 mb 0.00 in0.0 mm 0.00 in/hr0.0 mm/hr 0.00 in0.0 mm
08:30 AM 83.0°F28.3°C 57.6°F14.2°C 42% 2.2 mph NW3.5 kmh NW 2.9 mph4.7 kmh 29.91 in1012.9 mb 0.00 in0.0 mm 0.00 in/hr0.0 mm/hr 0.00 in0.0 mm
08:20 AM 83.0°F28.3°C 57.5°F14.2°C 42% Calm Calm -- 29.90 in1012.5 mb 0.00 in0.0 mm 0.00 in/hr0.0 mm/hr 0.00 in0.0 mm
08:10 AM 82.1°F27.8°C 57.4°F14.1°C 43% Calm Calm -- 29.90 in1012.5 mb 0.00 in0.0 mm 0.00 in/hr0.0 mm/hr 0.00 in0.0 mm
08:00 AM 81.9°F27.7°C 57.2°F14.0°C 43% Calm Calm -- 29.90 in1012.5 mb 0.00 in0.0 mm 0.00 in/hr0.0 mm/hr 0.00 in0.0 mm
07:50 AM 82.2°F27.9°C 56.8°F13.8°C 42% Calm Calm -- 29.90 in1012.5 mb 0.00 in0.0 mm 0.00 in/hr0.0 mm/hr 0.00 in0.0 mm
07:40 AM 81.4°F27.4°C 56.8°F13.8°C 43% Calm Calm -- 29.89 in1012.2 mb 0.00 in0.0 mm 0.00 in/hr0.0 mm/hr 0.00 in0.0 mm
07:30 AM 80.9°F27.2°C 57.6°F14.2°C 45% Calm Calm -- 29.89 in1012.2 mb 0.00 in0.0 mm 0.00 in/hr0.0 mm/hr 0.00 in0.0 mm
07:20 AM 80.1°F26.7°C 58.0°F14.4°C 47% Calm Calm -- 29.89 in1012.2 mb 0.00 in0.0 mm 0.00 in/hr0.0 mm/hr 0.00 in0.0 mm
07:10 AM 78.5°F25.8°C 57.2°F14.0°C 48% Calm Calm -- 29.89 in1012.2 mb 0.00 in0.0 mm 0.00 in/hr0.0 mm/hr 0.00 in0.0 mm
07:00 AM 76.8°F24.9°C 56.8°F13.8°C 50% Calm Calm -- 29.89 in1012.2 mb 0.00 in0.0 mm 0.00 in/hr0.0 mm/hr 0.00 in0.0 mm
06:50 AM 75.7°F24.3°C 56.3°F13.5°C 51% Calm Calm -- 29.89 in1012.2 mb 0.00 in0.0 mm 0.00 in/hr0.0 mm/hr 0.00 in0.0 mm
06:40 AM 74.9°F23.8°C 55.6°F13.1°C 51% 2.6 mph S4.2 kmh S 3.7 mph6.0 kmh 29.89 in1012.2 mb 0.00 in0.0 mm 0.00 in/hr0.0 mm/hr 0.00 in0.0 mm
06:30 AM 74.5°F23.6°C 56.3°F13.5°C 53% 1.6 mph SSW2.6 kmh SSW 3.5 mph5.6 kmh 29.89 in1012.2 mb 0.00 in0.0 mm 0.00 in/hr0.0 mm/hr 0.00 in0.0 mm
06:20 AM 74.3°F23.5°C 56.1°F13.4°C 53% 4.0 mph S6.4 kmh S 5.3 mph8.5 kmh 29.89 in1012.2 mb 0.00 in0.0 mm 0.00 in/hr0.0 mm/hr 0.00 in0.0 mm
06:10 AM 73.3°F22.9°C 55.7°F13.2°C 54% 4.5 mph S7.2 kmh S 6.3 mph10.1 kmh 29.89 in1012.2 mb 0.00 in0.0 mm 0.00 in/hr0.0 mm/hr 0.00 in0.0 mm
06:00 AM 73.0°F22.8°C 55.9°F13.3°C 55% 2.6 mph S4.2 kmh S 3.0 mph4.8 kmh 29.89 in1012.2 mb 0.00 in0.0 mm 0.00 in/hr0.0 mm/hr 0.00 in0.0 mm
05:50 AM 72.9°F22.7°C 56.3°F13.5°C 56% 3.4 mph S5.5 kmh S 5.0 mph8.0 kmh 29.89 in1012.2 mb 0.00 in0.0 mm 0.00 in/hr0.0 mm/hr 0.00 in0.0 mm
05:40 AM 72.9°F22.7°C 57.3°F14.1°C 58% 4.4 mph S7.1 kmh S 5.5 mph8.9 kmh 29.89 in1012.2 mb 0.00 in0.0 mm 0.00 in/hr0.0 mm/hr 0.00 in0.0 mm
05:30 AM 72.8°F22.7°C 57.1°F13.9°C 58% 4.7 mph S7.6 kmh S 5.8 mph9.3 kmh 29.89 in1012.2 mb 0.00 in0.0 mm 0.00 in/hr0.0 mm/hr 0.00 in0.0 mm
05:20 AM 72.1°F22.3°C 57.4°F14.1°C 60% 5.1 mph S8.2 kmh S 6.7 mph10.8 kmh 29.89 in1012.2 mb 0.00 in0.0 mm 0.00 in/hr0.0 mm/hr 0.00 in0.0 mm
05:10 AM 71.7°F22.1°C 57.0°F13.9°C 60% 4.1 mph S6.6 kmh S 4.7 mph7.6 kmh 29.89 in1012.2 mb 0.00 in0.0 mm 0.00 in/hr0.0 mm/hr 0.00 in0.0 mm
05:00 AM 71.6°F22.0°C 56.5°F13.6°C 59% 5.2 mph S8.4 kmh S 6.2 mph10.0 kmh 29.89 in1012.2 mb 0.00 in0.0 mm 0.00 in/hr0.0 mm/hr 0.00 in0.0 mm
04:50 AM 71.7°F22.1°C 56.1°F13.4°C 58% 3.8 mph S6.1 kmh S 6.0 mph9.7 kmh 29.89 in1012.2 mb 0.00 in0.0 mm 0.00 in/hr0.0 mm/hr 0.00 in0.0 mm
04:40 AM 71.9°F22.2°C 55.8°F13.2°C 57% 1.3 mph S2.1 kmh S 1.9 mph3.1 kmh 29.89 in1012.2 mb 0.00 in0.0 mm 0.00 in/hr0.0 mm/hr 0.00 in0.0 mm
04:30 AM 71.9°F22.2°C 55.4°F13.0°C 56% 2.0 mph S3.2 kmh S 2.4 mph3.9 kmh 29.89 in1012.2 mb 0.00 in0.0 mm 0.00 in/hr0.0 mm/hr 0.00 in0.0 mm
04:20 AM 72.4°F22.4°C 55.9°F13.3°C 56% Calm Calm -- 29.89 in1012.2 mb 0.00 in0.0 mm 0.00 in/hr0.0 mm/hr 0.00 in0.0 mm
04:10 AM 72.7°F22.6°C 57.1°F13.9°C 58% Calm Calm -- 29.89 in1012.2 mb 0.00 in0.0 mm 0.00 in/hr0.0 mm/hr 0.00 in0.0 mm
04:00 AM 72.8°F22.7°C 56.7°F13.7°C 57% Calm Calm -- 29.89 in1012.2 mb 0.00 in0.0 mm 0.00 in/hr0.0 mm/hr 0.00 in0.0 mm
03:50 AM 73.0°F22.8°C 57.3°F14.1°C 58% 1.0 mph SSE1.6 kmh SSE 1.5 mph2.4 kmh 29.88 in1011.9 mb 0.00 in0.0 mm 0.00 in/hr0.0 mm/hr 0.00 in0.0 mm
03:40 AM 73.0°F22.8°C 57.3°F14.1°C 58% Calm Calm -- 29.88 in1011.9 mb 0.00 in0.0 mm 0.00 in/hr0.0 mm/hr 0.00 in0.0 mm
03:30 AM 72.9°F22.7°C 57.7°F14.3°C 59% 2.2 mph S3.5 kmh S 2.9 mph4.7 kmh 29.88 in1011.9 mb 0.00 in0.0 mm 0.00 in/hr0.0 mm/hr 0.00 in0.0 mm
03:20 AM 73.1°F22.8°C 56.5°F13.6°C 56% 2.3 mph SSW3.7 kmh SSW 3.5 mph5.6 kmh 29.88 in1011.9 mb 0.00 in0.0 mm 0.00 in/hr0.0 mm/hr 0.00 in0.0 mm
03:10 AM 72.7°F22.6°C 57.0°F13.9°C 58% 1.6 mph SSE2.6 kmh SSE 3.1 mph5.0 kmh 29.88 in1011.9 mb 0.00 in0.0 mm 0.00 in/hr0.0 mm/hr 0.00 in0.0 mm
03:00 AM 72.1°F22.3°C 57.5°F14.2°C 60% 4.6 mph S7.4 kmh S 5.1 mph8.2 kmh 29.88 in1011.9 mb 0.00 in0.0 mm 0.00 in/hr0.0 mm/hr 0.00 in0.0 mm
02:50 AM 72.2°F22.3°C 57.5°F14.2°C 60% 3.5 mph S5.6 kmh S 4.2 mph6.8 kmh 29.88 in1011.9 mb 0.00 in0.0 mm 0.00 in/hr0.0 mm/hr 0.00 in0.0 mm
02:40 AM 72.6°F22.6°C 57.5°F14.2°C 59% 4.0 mph S6.4 kmh S 5.0 mph8.0 kmh 29.88 in1011.9 mb 0.00 in0.0 mm 0.00 in/hr0.0 mm/hr 0.00 in0.0 mm
02:30 AM 72.8°F22.7°C 57.2°F14.0°C 58% 2.7 mph S4.3 kmh S 3.4 mph5.5 kmh 29.88 in1011.9 mb 0.00 in0.0 mm 0.00 in/hr0.0 mm/hr 0.00 in0.0 mm
02:20 AM 73.1°F22.8°C 57.4°F14.1°C 58% 2.3 mph S3.7 kmh S 3.0 mph4.8 kmh 29.88 in1011.9 mb 0.00 in0.0 mm 0.00 in/hr0.0 mm/hr 0.00 in0.0 mm
02:10 AM 73.6°F23.1°C 57.5°F14.2°C 57% Calm Calm -- 29.88 in1011.9 mb 0.00 in0.0 mm 0.00 in/hr0.0 mm/hr 0.00 in0.0 mm
02:00 AM 73.5°F23.1°C 56.4°F13.6°C 55% 2.7 mph SE4.3 kmh SE 3.0 mph4.8 kmh 29.88 in1011.9 mb 0.00 in0.0 mm 0.00 in/hr0.0 mm/hr 0.00 in0.0 mm
01:50 AM 73.9°F23.3°C 57.2°F14.0°C 56% Calm Calm -- 29.88 in1011.9 mb 0.00 in0.0 mm 0.00 in/hr0.0 mm/hr 0.00 in0.0 mm
01:40 AM 74.3°F23.5°C 57.1°F13.9°C 55% Calm Calm -- 29.88 in1011.9 mb 0.00 in0.0 mm 0.00 in/hr0.0 mm/hr 0.00 in0.0 mm
01:30 AM 74.4°F23.6°C 57.1°F13.9°C 55% 1.1 mph S1.8 kmh S 0.6 mph1.0 kmh 29.88 in1011.9 mb 0.00 in0.0 mm 0.00 in/hr0.0 mm/hr 0.00 in0.0 mm
01:20 AM 74.2°F23.4°C 57.0°F13.9°C 55% 3.7 mph S6.0 kmh S 4.8 mph7.7 kmh 29.88 in1011.9 mb 0.00 in0.0 mm 0.00 in/hr0.0 mm/hr 0.00 in0.0 mm
01:10 AM 73.7°F23.2°C 56.5°F13.6°C 55% 3.7 mph S6.0 kmh S 5.5 mph8.9 kmh 29.88 in1011.9 mb 0.00 in0.0 mm 0.00 in/hr0.0 mm/hr 0.00 in0.0 mm
01:00 AM 73.4°F23.0°C 57.3°F14.1°C 57% 2.8 mph S4.5 kmh S 3.9 mph6.3 kmh 29.88 in1011.9 mb 0.00 in0.0 mm 0.00 in/hr0.0 mm/hr 0.00 in0.0 mm
12:50 AM 73.4°F23.0°C 56.7°F13.7°C 56% 3.0 mph S4.8 kmh S 4.8 mph7.7 kmh 29.88 in1011.9 mb 0.00 in0.0 mm 0.00 in/hr0.0 mm/hr 0.00 in0.0 mm
12:40 AM 73.2°F22.9°C 56.5°F13.6°C 56% 4.3 mph S6.9 kmh S 5.8 mph9.3 kmh 29.89 in1012.2 mb 0.00 in0.0 mm 0.00 in/hr0.0 mm/hr 0.00 in0.0 mm
12:30 AM 73.4°F23.0°C 57.2°F14.0°C 57% 3.9 mph S6.3 kmh S 5.1 mph8.2 kmh 29.89 in1012.2 mb 0.00 in0.0 mm 0.00 in/hr0.0 mm/hr 0.00 in0.0 mm
12:20 AM 73.3°F22.9°C 57.2°F14.0°C 57% 4.3 mph S6.9 kmh S 5.2 mph8.4 kmh 29.89 in1012.2 mb 0.00 in0.0 mm 0.00 in/hr0.0 mm/hr 0.00 in0.0 mm
12:10 AM 73.3°F22.9°C 57.2°F14.0°C 57% 3.7 mph S6.0 kmh S 5.2 mph8.4 kmh 29.89 in1012.2 mb 0.00 in0.0 mm 0.00 in/hr0.0 mm/hr 0.00 in0.0 mm
12:00 AM 73.5°F23.1°C 57.9°F14.4°C 58% 3.7 mph S6.0 kmh S 3.9 mph6.3 kmh 29.90 in1012.5 mb 0.00 in0.0 mm 0.00 in/hr0.0 mm/hr 0.00 in0.0 mm